Casper, WY

1:19 PM MST on December 25, 2014 (GMT -0700)
North of Casper, WY | Change Station
CLOSE
Current Station
Personal Weather Station
Location: Bar Nunn, WY
Elevation: 5276 ft
Nearby Weather Stations
Active Advisory: Winter Storm Warning

Elev 5276 ft 42.91 °N, 106.35 °W | Updated 1 minute ago

Snow
Snow Freezing Fog
23.5 °F
Feels Like 10 °F
N
16.3
Wind Variable Wind from NNE
Gusts 16.3 mph

Today
High -- | Low -- °F
--% Chance of Precip.
Yesterday
High -- | Low -- °F
Precip. -- in
7:35 AM 4:36 PM
Waxing Crescent, 19% visible
Pressure 29.66 in
Visibility 0.5 miles
Clouds Few 1100 ft
Overcast 1600 ft
Windchill 10 °F
Dew Point 19 °F
Humidity 83%
Rainfall 0.00 in
Snow Depth Not available.
UV 1 out of 12
Pollen .10 out of 12
Air Quality Not available.
Flu Activity Not available.
SPECI KCPR 252003Z 03021G28KT 1/2SM SN FZFG FEW011 OVC016 M05/M07 A2966 RMK AO2 PK WND 03028/1959 P0000 T10501072

More Conditions Fewer Conditions

Pressure 29.66 in
Visibility 0.5 miles
Clouds Few 1100 ft
Overcast 1600 ft
Windchill 10 °F
Dew Point 19 °F
Humidity 83%
Rainfall 0.00 in
Snow Depth Not available.
UV 1 out of 12
Pollen .10 out of 12
Air Quality Not available.
Flu Activity Not available.
SPECI KCPR 252003Z 03021G28KT 1/2SM SN FZFG FEW011 OVC016 M05/M07 A2966 RMK AO2 PK WND 03028/1959 P0000 T10501072

More Conditions Fewer Conditions

10-Day Weather Forecast

Almanac

Astronomy

Dec. 25, 2014 Rise Set
Actual Time
Civil Twilight
Nautical Twilight
Astronomical Twilight
Moon
Length of Visible Light
Length of Day
Tomorrow will be .
, % of the Moon is Illuminated

Today's Extremes

State Highs State Lows

Community

WunderPhotos

Upload Photos

1,780,388 photos uploaded!

WunderBlogs® & News

Nearby

Air Quality

  Air Quality AQ Index Pollutant
Not available.

Snow Depth

Station Depth Elevation

Earthquake Activity

City Distance Mag. Time & Date
Minimum magnitude displayed is 2.5.

Coastal Water Temperatures

Place Temperature

Nearby Weather Stations